Bo Saldinera, Puerto Rico
Current Conditions -  °F | °C
As of 4:56 PM on Tuesday 21 Oct 2014 (Local Time) from TJSJ Reporting Station
Scattered Clouds Scattered Clouds  
Wind Chill: 85°   Ceiling: Unl
Heat Index: 94°   Visibility: 10mi
Dew Point: 76°   Wind: 15mph
Humidity: 74%   Direction: 60°ENE
Pressure: 29.89"   Gusts: NA
Location:  18.4598°N, 66.2592°W
Report Text: TJSJ 212056Z 06013KT 10SM FEW034 SCT085 SCT120 29/24 A2989 RMK AO2 SLP122 T02940244 55004
Loading
Personal Weather Stations






























Interactive Weather Map
Tropical Storm Tracking
New forecast layout! Learn more

10-Day Weather Forecast

Advertisements
Track Severe Weather on mobile